Time;durP1;ratioP1;P1;durP2;ratioP2;P2;SDS_P1;SDS_P2;PMS_P1;PMS_P2;Temp;Humidity;BMP_temperature;BMP_pressure;BME280_temperature;BME280_humidity;BME280_pressure;Samples;Min_cycle;Max_cycle;Signal;HPM_P1;HPM_P2
2023/03/25 04:01:45;;;;;;;0.73;0.50;;;18.70;53.20;;;;;;5396740;22;46107;-54
2023/03/25 04:04:19;;;;;;;0.50;0.50;;;18.70;53.20;;;;;;4979628;28;45269;-55
2023/03/25 04:07:03;;;;;;;0.60;0.60;;;18.70;53.20;;;;;;5000756;28;45243;-51
2023/03/25 04:09:39;;;;;;;0.40;0.40;;;18.60;53.20;;;;;;4996050;28;45212;-51
2023/03/25 04:12:19;;;;;;;0.90;0.70;;;18.60;53.20;;;;;;5012898;28;45308;-50
2023/03/25 04:14:45;;;;;;;0.63;0.43;;;18.70;53.20;;;;;;5001867;28;45266;-51
2023/03/25 04:17:11;;;;;;;0.50;0.45;;;18.70;53.20;;;;;;4996045;28;46551;-56
2023/03/25 04:19:37;;;;;;;0.60;0.60;;;18.60;53.10;;;;;;4992994;28;45346;-51
2023/03/25 04:22:03;;;;;;;0.68;0.57;;;18.60;53.20;;;;;;5003699;28;45456;-53
2023/03/25 04:24:31;;;;;;;0.57;0.50;;;18.60;53.20;;;;;;5010963;28;45298;-55
2023/03/25 04:27:03;;;;;;;0.45;0.45;;;18.60;53.20;;;;;;5007585;28;45451;-53
2023/03/25 04:29:32;;;;;;;1.02;0.63;;;18.60;53.20;;;;;;5007886;28;45459;-51
2023/03/25 04:32:01;;;;;;;0.63;0.57;;;18.60;53.20;;;;;;4999047;28;45399;-53
2023/03/25 04:34:27;;;;;;;0.75;0.40;;;18.60;53.20;;;;;;5006179;28;45436;-54
2023/03/25 04:36:53;;;;;;;0.73;0.40;;;18.60;53.20;;;;;;5005969;28;46517;-51
2023/03/25 04:39:22;;;;;;;0.73;0.50;;;18.60;53.20;;;;;;5007817;28;45518;-51
2023/03/25 04:41:48;;;;;;;0.50;0.50;;;18.60;53.20;;;;;;5004668;28;45173;-51
2023/03/25 04:44:17;;;;;;;0.73;0.50;;;18.60;53.20;;;;;;5008975;28;45502;-51
2023/03/25 04:46:43;;;;;;;0.80;0.47;;;18.60;53.20;;;;;;5000923;28;45897;-51
2023/03/25 04:49:12;;;;;;;0.50;0.50;;;18.60;53.10;;;;;;5008816;28;45354;-51
2023/03/25 04:51:43;;;;;;;0.45;0.40;;;18.60;53.10;;;;;;5002850;28;45666;-54
2023/03/25 04:54:08;;;;;;;0.40;0.40;;;18.60;53.10;;;;;;5027488;28;45190;-51
2023/03/25 04:56:35;;;;;;;0.73;0.50;;;18.60;53.10;;;;;;5009630;28;45789;-51
2023/03/25 04:59:00;;;;;;;0.45;0.40;;;18.60;53.20;;;;;;5009911;28;44869;-50
2023/03/25 05:01:29;;;;;;;0.43;0.43;;;18.60;53.20;;;;;;4996729;28;45594;-49
2023/03/25 05:04:05;;;;;;;0.55;0.55;;;18.60;53.10;;;;;;5002154;28;45168;-51
2023/03/25 05:06:37;;;;;;;0.63;0.60;;;18.60;53.10;;;;;;5003579;28;47360;-51
2023/03/25 05:09:03;;;;;;;0.90;0.60;;;18.60;53.10;;;;;;5014667;28;46118;-51
2023/03/25 05:11:29;;;;;;;0.50;0.50;;;18.60;53.10;;;;;;5003451;28;45199;-53
2023/03/25 05:13:55;;;;;;;0.55;0.52;;;18.60;53.10;;;;;;5008168;28;45205;-52
2023/03/25 05:16:21;;;;;;;0.98;0.50;;;18.60;53.20;;;;;;5004809;28;45267;-51
2023/03/25 05:18:46;;;;;;;0.57;0.57;;;18.60;53.10;;;;;;5009870;28;45249;-55
2023/03/25 05:21:12;;;;;;;0.40;0.40;;;18.60;53.10;;;;;;5005339;28;45359;-50
2023/03/25 05:23:37;;;;;;;0.70;0.40;;;18.60;53.20;;;;;;5010394;28;45556;-51
2023/03/25 05:26:03;;;;;;;0.47;0.45;;;18.60;53.10;;;;;;5012118;28;46944;-54
2023/03/25 05:28:29;;;;;;;0.63;0.40;;;18.60;53.20;;;;;;5012991;28;45179;-54
2023/03/25 05:30:55;;;;;;;0.40;0.40;;;18.50;53.10;;;;;;5006265;28;45154;-50
2023/03/25 05:33:21;;;;;;;0.63;0.50;;;18.60;53.20;;;;;;4996697;28;45527;-53
2023/03/25 05:35:46;;;;;;;0.50;0.43;;;18.60;53.10;;;;;;5001583;28;46209;-52
2023/03/25 05:38:13;;;;;;;0.28;0.28;;;18.50;53.10;;;;;;5008713;28;45180;-51
2023/03/25 05:40:39;;;;;;;1.02;0.50;;;18.60;53.20;;;;;;5008071;28;45020;-51
2023/03/25 05:43:05;;;;;;;0.85;0.50;;;18.50;53.10;;;;;;5007600;28;44759;-53
2023/03/25 05:45:31;;;;;;;0.80;0.68;;;18.50;53.10;;;;;;5001834;28;46030;-55
2023/03/25 05:47:59;;;;;;;0.80;0.55;;;18.50;53.10;;;;;;5010832;28;45244;-53
2023/03/25 05:50:26;;;;;;;0.35;0.35;;;18.50;53.00;;;;;;5006324;28;44705;-56
2023/03/25 05:52:52;;;;;;;0.93;0.47;;;18.50;53.10;;;;;;5010503;28;45220;-55
2023/03/25 05:55:19;;;;;;;0.40;0.40;;;18.50;53.10;;;;;;5000090;28;44995;-52
2023/03/25 05:57:44;;;;;;;0.55;0.50;;;18.50;53.10;;;;;;4996749;28;44697;-51
2023/03/25 06:00:11;;;;;;;0.40;0.40;;;18.50;53.10;;;;;;5004496;28;45270;-55
2023/03/25 06:02:37;;;;;;;0.57;0.45;;;18.50;53.10;;;;;;5008119;28;45288;-52
2023/03/25 06:05:08;;;;;;;0.40;0.40;;;18.50;53.10;;;;;;5011210;28;46079;-54
2023/03/25 06:07:36;;;;;;;0.63;0.40;;;18.50;53.10;;;;;;5013152;28;45657;-53
2023/03/25 06:10:02;;;;;;;0.40;0.40;;;18.50;53.10;;;;;;5014927;28;45268;-54
2023/03/25 06:12:31;;;;;;;0.50;0.40;;;18.50;53.10;;;;;;5004245;28;45987;-53
2023/03/25 06:14:58;;;;;;;0.50;0.50;;;18.50;53.10;;;;;;5013972;28;46130;-52
2023/03/25 06:17:24;;;;;;;0.40;0.40;;;18.50;53.10;;;;;;5000252;28;45225;-51
2023/03/25 06:19:50;;;;;;;0.40;0.40;;;18.50;53.10;;;;;;5012698;28;45293;-52
2023/03/25 06:22:16;;;;;;;0.50;0.30;;;18.50;53.00;;;;;;5008521;28;45338;-52
2023/03/25 06:24:41;;;;;;;0.50;0.30;;;18.50;53.00;;;;;;5009272;28;46398;-50
2023/03/25 06:27:16;;;;;;;0.50;0.50;;;18.50;53.00;;;;;;5010158;28;45427;-51
2023/03/25 06:29:42;;;;;;;0.38;0.38;;;18.50;53.00;;;;;;5022738;28;45202;-54
2023/03/25 06:32:09;;;;;;;0.43;0.43;;;18.50;53.00;;;;;;5005264;28;45386;-53
2023/03/25 06:34:35;;;;;;;0.40;0.40;;;18.50;53.00;;;;;;5026616;28;46196;-51
2023/03/25 06:37:00;;;;;;;0.40;0.40;;;18.50;53.10;;;;;;5006972;28;45423;-51
2023/03/25 06:39:30;;;;;;;0.40;0.40;;;18.50;53.00;;;;;;5013521;28;46035;-53
2023/03/25 06:41:59;;;;;;;0.55;0.40;;;18.50;53.00;;;;;;5008209;28;45388;-50
2023/03/25 06:44:25;;;;;;;0.40;0.40;;;18.50;53.10;;;;;;5009445;28;45528;-52
2023/03/25 06:46:51;;;;;;;0.50;0.50;;;18.50;53.10;;;;;;5004637;28;44906;-51
2023/03/25 06:49:16;;;;;;;0.30;0.30;;;18.50;53.00;;;;;;5007184;28;45236;-51
2023/03/25 06:51:42;;;;;;;0.65;0.40;;;18.50;53.00;;;;;;5004315;28;45728;-50
2023/03/25 06:54:07;;;;;;;0.40;0.40;;;18.50;53.00;;;;;;5004645;28;46179;-53
2023/03/25 06:56:33;;;;;;;0.30;0.30;;;18.50;53.00;;;;;;5008778;28;45232;-50
2023/03/25 06:58:58;;;;;;;0.43;0.40;;;18.50;53.00;;;;;;5014649;28;45684;-50
2023/03/25 07:01:24;;;;;;;0.30;0.30;;;18.40;53.00;;;;;;5000098;28;45346;-51
2023/03/25 07:03:50;;;;;;;0.38;0.30;;;18.50;53.00;;;;;;5007496;28;46980;-52
2023/03/25 07:06:16;;;;;;;0.30;0.30;;;18.50;52.90;;;;;;5006911;28;45841;-51
2023/03/25 07:08:42;;;;;;;0.30;0.30;;;18.40;53.00;;;;;;5011693;28;45322;-51
2023/03/25 07:11:08;;;;;;;0.57;0.40;;;18.40;52.90;;;;;;5005359;28;45326;-51
2023/03/25 07:13:34;;;;;;;0.52;0.40;;;18.40;53.00;;;;;;4987856;28;46065;-52
2023/03/25 07:16:00;;;;;;;0.40;0.40;;;18.40;52.90;;;;;;4996588;28;45515;-51
2023/03/25 07:18:25;;;;;;;0.50;0.50;;;18.40;52.90;;;;;;5003049;28;45494;-51
2023/03/25 07:20:51;;;;;;;0.93;0.47;;;18.40;53.00;;;;;;5002200;28;45137;-52
2023/03/25 07:23:16;;;;;;;1.00;0.50;;;18.40;53.00;;;;;;5010069;28;46909;-51
2023/03/25 07:25:42;;;;;;;0.65;0.40;;;18.40;53.00;;;;;;4999667;28;45241;-51
2023/03/25 07:28:08;;;;;;;0.47;0.47;;;18.40;53.00;;;;;;5011203;28;45510;-51
2023/03/25 07:30:33;;;;;;;0.50;0.40;;;18.40;52.90;;;;;;5000795;28;45614;-52
2023/03/25 07:32:59;;;;;;;0.50;0.40;;;18.40;52.90;;;;;;5007102;28;46178;-52
2023/03/25 07:35:24;;;;;;;0.50;0.50;;;18.40;52.90;;;;;;5005450;28;44596;-52
2023/03/25 07:37:50;;;;;;;0.85;0.52;;;18.40;52.90;;;;;;5006566;28;44719;-51
2023/03/25 07:40:15;;;;;;;0.50;0.50;;;18.40;52.90;;;;;;5001412;28;45241;-51
2023/03/25 07:42:41;;;;;;;0.30;0.30;;;18.40;52.90;;;;;;5007620;28;45876;-56
2023/03/25 07:45:07;;;;;;;0.57;0.45;;;18.40;52.90;;;;;;5007101;28;45709;-52
2023/03/25 07:47:32;;;;;;;0.50;0.50;;;18.40;52.90;;;;;;5001753;28;44890;-53
2023/03/25 07:49:58;;;;;;;0.40;0.40;;;18.40;52.90;;;;;;5004401;28;46083;-53
2023/03/25 07:52:23;;;;;;;0.75;0.40;;;18.40;52.90;;;;;;5001855;28;46204;-50
2023/03/25 07:54:49;;;;;;;0.40;0.40;;;18.40;52.80;;;;;;5004254;28;45406;-51
2023/03/25 07:57:15;;;;;;;0.40;0.40;;;18.50;52.80;;;;;;4997975;28;44876;-53
2023/03/25 07:59:40;;;;;;;0.47;0.47;;;18.50;52.70;;;;;;5003034;28;45512;-53
2023/03/25 08:02:08;;;;;;;0.40;0.40;;;18.50;52.70;;;;;;4991664;28;46030;-53
2023/03/25 08:04:33;;;;;;;0.35;0.35;;;18.50;52.70;;;;;;5002792;28;45598;-51
2023/03/25 08:06:59;;;;;;;0.43;0.35;;;18.50;52.60;;;;;;5000783;28;45832;-53
2023/03/25 08:09:25;;;;;;;0.50;0.40;;;18.50;52.60;;;;;;5008561;28;45278;-55
2023/03/25 08:11:50;;;;;;;0.40;0.40;;;18.50;52.50;;;;;;5000239;28;45363;-55
2023/03/25 08:14:16;;;;;;;0.30;0.30;;;18.50;52.50;;;;;;5008301;28;45232;-52
2023/03/25 08:16:41;;;;;;;0.38;0.30;;;18.50;52.50;;;;;;4997900;28;45466;-54
2023/03/25 08:19:07;;;;;;;0.45;0.45;;;18.50;52.50;;;;;;5006577;28;45268;-51
2023/03/25 08:21:33;;;;;;;0.45;0.43;;;18.50;52.40;;;;;;4998512;28;45078;-53
2023/03/25 08:24:01;;;;;;;0.55;0.50;;;18.50;52.40;;;;;;5007847;28;44723;-51
2023/03/25 08:26:27;;;;;;;0.55;0.55;;;18.50;52.50;;;;;;4997544;28;45796;-54
2023/03/25 08:28:56;;;;;;;0.43;0.43;;;18.50;52.40;;;;;;5022626;28;44772;-53
2023/03/25 08:31:25;;;;;;;0.32;0.32;;;18.60;52.40;;;;;;4997521;28;46054;-51
2023/03/25 08:33:51;;;;;;;0.50;0.50;;;18.60;52.40;;;;;;5006154;28;46097;-53
2023/03/25 08:36:18;;;;;;;0.35;0.35;;;18.60;52.40;;;;;;5003695;28;45449;-51
2023/03/25 08:38:45;;;;;;;0.50;0.40;;;18.60;52.30;;;;;;5011087;28;45548;-53
2023/03/25 08:41:10;;;;;;;0.47;0.45;;;18.60;52.30;;;;;;4999954;28;46205;-52
2023/03/25 08:43:36;;;;;;;0.80;0.50;;;18.60;52.30;;;;;;5007965;28;45484;-52
2023/03/25 08:46:02;;;;;;;0.63;0.60;;;18.60;52.30;;;;;;5003452;28;45375;-51
2023/03/25 08:48:27;;;;;;;0.40;0.40;;;18.60;52.30;;;;;;5011284;28;45399;-52
2023/03/25 08:50:53;;;;;;;0.50;0.40;;;18.60;52.30;;;;;;5003239;28;45401;-51
2023/03/25 08:53:18;;;;;;;0.70;0.55;;;18.60;52.20;;;;;;5009393;28;45212;-52
2023/03/25 08:55:44;;;;;;;0.40;0.20;;;18.60;52.20;;;;;;5002736;28;45987;-51
2023/03/25 08:58:10;;;;;;;0.40;0.38;;;18.60;52.20;;;;;;5005982;28;44941;-51
2023/03/25 09:00:36;;;;;;;0.70;0.35;;;18.60;52.20;;;;;;5000610;28;46994;-50
2023/03/25 09:03:03;;;;;;;0.30;0.30;;;18.60;52.30;;;;;;5008024;28;45508;-53
2023/03/25 09:05:28;;;;;;;0.85;0.60;;;18.60;52.20;;;;;;5006551;28;45657;-55
2023/03/25 09:07:54;;;;;;;0.30;0.30;;;18.60;52.20;;;;;;5008529;28;45453;-51
2023/03/25 09:10:20;;;;;;;0.47;0.47;;;18.60;52.20;;;;;;4998716;28;45975;-53
2023/03/25 09:12:45;;;;;;;0.25;0.25;;;18.60;52.10;;;;;;5003168;28;45566;-51
2023/03/25 09:15:11;;;;;;;1.17;0.30;;;18.60;52.10;;;;;;5006364;28;45770;-50
2023/03/25 09:17:37;;;;;;;0.50;0.50;;;18.60;52.10;;;;;;4999526;28;45562;-51
2023/03/25 09:20:03;;;;;;;0.75;0.40;;;18.60;52.10;;;;;;5010101;28;45778;-54
2023/03/25 09:22:29;;;;;;;0.50;0.50;;;18.70;52.10;;;;;;4983921;28;45199;-51
2023/03/25 09:24:54;;;;;;;0.40;0.30;;;18.70;52.10;;;;;;5005417;28;45655;-53
2023/03/25 09:27:20;;;;;;;0.30;0.30;;;18.70;52.00;;;;;;5007004;28;45719;-51
2023/03/25 09:29:45;;;;;;;0.40;0.40;;;18.70;52.00;;;;;;5008278;28;46433;-52
2023/03/25 09:32:11;;;;;;;0.30;0.30;;;18.70;51.90;;;;;;5001466;28;44826;-52
2023/03/25 09:34:37;;;;;;;0.63;0.40;;;18.70;51.90;;;;;;5010680;28;44656;-51
2023/03/25 09:37:03;;;;;;;0.60;0.50;;;18.70;51.90;;;;;;5006874;28;45475;-52
2023/03/25 09:39:29;;;;;;;0.40;0.40;;;18.70;51.90;;;;;;5011244;28;46184;-50
2023/03/25 09:42:13;;;;;;;0.35;0.35;;;18.70;51.90;;;;;;5020982;28;45359;-51
2023/03/25 09:44:52;;;;;;;0.30;0.30;;;18.70;51.80;;;;;;5012022;28;45063;-51
2023/03/25 09:47:19;;;;;;;0.40;0.35;;;18.70;51.70;;;;;;5001358;28;45459;-53
2023/03/25 09:49:45;;;;;;;0.47;0.40;;;18.80;51.80;;;;;;5002730;28;46014;-52
2023/03/25 09:52:24;;;;;;;1.65;0.50;;;18.80;51.80;;;;;;4980468;28;45307;-51
2023/03/25 09:54:52;;;;;;;0.88;0.40;;;18.80;51.70;;;;;;4974628;28;44780;-52
2023/03/25 09:57:21;;;;;;;0.68;0.40;;;18.80;51.70;;;;;;5003050;28;45606;-54
2023/03/25 09:59:48;;;;;;;0.30;0.30;;;18.80;51.70;;;;;;4987266;28;46172;-50
2023/03/25 10:02:26;;;;;;;0.68;0.40;;;18.80;51.70;;;;;;4997391;28;45335;-54
2023/03/25 10:05:10;;;;;;;0.40;0.38;;;18.80;51.60;;;;;;5024953;28;45171;-52
2023/03/25 10:07:49;;;;;;;0.40;0.40;;;18.80;51.60;;;;;;5004014;28;45324;-51
2023/03/25 10:10:20;;;;;;;0.30;0.30;;;18.80;51.60;;;;;;5016573;28;45412;-51
2023/03/25 10:13:00;;;;;;;0.47;0.47;;;18.80;51.70;;;;;;5003383;28;45241;-54
2023/03/25 10:16:14;;;;;;;0.60;0.30;;;18.80;51.70;;;;;;5001321;28;45483;-52
2023/03/25 10:19:04;;;;;;;0.70;0.50;;;18.80;51.60;;;;;;4976366;28;44645;-51
2023/03/25 10:21:41;;;;;;;0.82;0.40;;;18.80;51.70;;;;;;5001237;28;45600;-54
2023/03/25 10:24:19;;;;;;;0.22;0.22;;;18.80;51.60;;;;;;5010426;28;45301;-53
2023/03/25 10:27:26;;;;;;;0.70;0.50;;;18.90;51.70;;;;;;5001173;28;45439;-51
2023/03/25 10:29:57;;;;;;;0.30;0.30;;;18.80;51.50;;;;;;5007083;28;45432;-51
2023/03/25 10:32:31;;;;;;;0.52;0.40;;;18.80;51.60;;;;;;4994317;28;46180;-50
2023/03/25 10:34:57;;;;;;;0.40;0.40;;;18.80;51.50;;;;;;4996847;28;45343;-51
2023/03/25 10:37:34;;;;;;;0.30;0.30;;;18.80;51.50;;;;;;4994930;28;45492;-56
2023/03/25 10:40:21;;;;;;;0.80;0.50;;;18.90;51.60;;;;;;5007087;28;45137;-51
2023/03/25 10:42:57;;;;;;;0.60;0.40;;;18.90;51.60;;;;;;5005382;28;46246;-51
2023/03/25 10:45:23;;;;;;;0.85;0.30;;;18.80;51.60;;;;;;5001255;28;45259;-51
2023/03/25 10:47:49;;;;;;;0.57;0.40;;;18.80;51.60;;;;;;5019681;28;45644;-52
2023/03/25 10:50:15;;;;;;;0.28;0.28;;;18.80;51.60;;;;;;4997963;28;47111;-54
2023/03/25 10:52:41;;;;;;;0.45;0.45;;;18.80;51.60;;;;;;5005606;28;46277;-53
2023/03/25 10:55:24;;;;;;;0.77;0.22;;;18.80;51.60;;;;;;5001673;28;45187;-51
2023/03/25 10:57:50;;;;;;;0.30;0.30;;;18.90;51.60;;;;;;5003003;28;46468;-51
2023/03/25 11:00:17;;;;;;;0.35;0.35;;;18.80;51.60;;;;;;5000868;28;45652;-50
2023/03/25 11:02:42;;;;;;;0.43;0.40;;;18.90;51.70;;;;;;4999189;28;46472;-53
2023/03/25 11:05:08;;;;;;;0.50;0.50;;;18.80;51.60;;;;;;5000399;28;45772;-52
2023/03/25 11:07:35;;;;;;;0.52;0.40;;;18.90;51.70;;;;;;4992433;28;45322;-53
2023/03/25 11:10:16;;;;;;;0.98;0.40;;;18.80;51.60;;;;;;4991438;28;45188;-50
2023/03/25 11:12:44;;;;;;;0.80;0.50;;;18.90;51.50;;;;;;5002529;28;46597;-50
2023/03/25 11:15:28;;;;;;;0.30;0.22;;;18.90;51.70;;;;;;5003739;28;45422;-57
2023/03/25 11:18:16;;;;;;;0.25;0.20;;;18.90;51.50;;;;;;5004615;28;45572;-52
2023/03/25 11:20:51;;;;;;;0.65;0.52;;;18.80;51.50;;;;;;4993736;28;45445;-54
2023/03/25 11:23:22;;;;;;;0.80;0.45;;;18.90;51.60;;;;;;5004046;28;46071;-51
2023/03/25 11:25:48;;;;;;;0.30;0.30;;;18.80;51.50;;;;;;4987438;28;45569;-54
2023/03/25 11:28:37;;;;;;;0.85;0.30;;;18.90;51.60;;;;;;4995554;28;45691;-53
2023/03/25 11:31:18;;;;;;;0.28;0.28;;;18.90;51.60;;;;;;4971574;28;46088;-54
2023/03/25 11:33:46;;;;;;;0.32;0.32;;;18.90;51.50;;;;;;4999056;28;46001;-53
2023/03/25 11:36:20;;;;;;;0.80;0.40;;;18.90;51.50;;;;;;4998763;28;46252;-53
2023/03/25 11:38:49;;;;;;;0.43;0.40;;;18.80;51.40;;;;;;4999966;28;45815;-53
2023/03/25 11:41:15;;;;;;;0.38;0.38;;;18.90;51.50;;;;;;4995775;28;45919;-53
2023/03/25 11:43:41;;;;;;;0.30;0.30;;;18.80;51.40;;;;;;5006967;28;45729;-53
2023/03/25 11:46:11;;;;;;;0.60;0.43;;;18.90;51.50;;;;;;4985504;28;45859;-53
2023/03/25 11:48:37;;;;;;;0.50;0.22;;;18.90;51.50;;;;;;4999316;28;44803;-52
2023/03/25 11:51:04;;;;;;;0.60;0.30;;;18.90;51.50;;;;;;4989327;28;45950;-54
2023/03/25 11:53:30;;;;;;;1.00;0.60;;;18.90;51.50;;;;;;4987314;28;46092;-52
2023/03/25 11:56:03;;;;;;;0.60;0.40;;;18.90;51.50;;;;;;4987011;28;45818;-50
2023/03/25 11:58:31;;;;;;;0.43;0.38;;;18.90;51.40;;;;;;5005935;28;44986;-51
2023/03/25 12:01:05;;;;;;;0.52;0.30;;;18.90;51.40;;;;;;4983014;28;46446;-53
2023/03/25 12:03:32;;;;;;;0.45;0.43;;;18.90;51.40;;;;;;4985237;28;46329;-52
2023/03/25 12:06:10;;;;;;;0.70;0.30;;;18.90;51.40;;;;;;4984349;28;45613;-53
2023/03/25 12:08:51;;;;;;;0.40;0.30;;;18.90;51.30;;;;;;4993267;28;45659;-54
2023/03/25 12:11:27;;;;;;;0.40;0.40;;;18.90;51.30;;;;;;4988335;28;45866;-53
2023/03/25 12:14:26;;;;;;;0.40;0.30;;;18.90;51.30;;;;;;4994573;28;45713;-52
2023/03/25 12:17:15;;;;;;;0.40;0.40;;;18.90;51.30;;;;;;4983415;28;45552;-50
2023/03/25 12:20:07;;;;;;;0.20;0.20;;;18.90;51.30;;;;;;4978146;28;45539;-50
2023/03/25 12:22:36;;;;;;;1.08;0.32;;;18.90;51.30;;;;;;4999273;28;45833;-54
2023/03/25 12:25:15;;;;;;;0.30;0.30;;;18.90;51.40;;;;;;5001983;28;45079;-50
2023/03/25 12:28:15;;;;;;;0.50;0.40;;;18.90;51.30;;;;;;5003548;28;44895;-53
2023/03/25 12:31:03;;;;;;;0.40;0.30;;;18.90;51.30;;;;;;4994525;28;46023;-51
2023/03/25 12:33:56;;;;;;;0.20;0.20;;;18.90;51.30;;;;;;5003535;28;45500;-53
2023/03/25 12:36:24;;;;;;;0.90;0.43;;;18.90;51.30;;;;;;5014749;28;45410;-50
2023/03/25 12:39:19;;;;;;;0.35;0.35;;;18.90;51.30;;;;;;5000813;28;46249;-52
2023/03/25 12:42:06;;;;;;;0.30;0.30;;;18.90;51.30;;;;;;4997059;28;45731;-50
2023/03/25 12:45:05;;;;;;;0.70;0.30;;;18.90;51.30;;;;;;5004721;28;45648;-50
2023/03/25 12:47:53;;;;;;;0.38;0.30;;;19.00;51.30;;;;;;4973034;28;45822;-50
2023/03/25 12:50:51;;;;;;;0.38;0.38;;;18.90;51.20;;;;;;5015876;28;45284;-52
2023/03/25 12:53:39;;;;;;;0.40;0.30;;;19.00;51.30;;;;;;5001316;28;46075;-50
2023/03/25 12:56:35;;;;;;;0.30;0.30;;;18.90;51.30;;;;;;4987088;28;45841;-51
2023/03/25 12:59:04;;;;;;;0.57;0.40;;;18.90;51.20;;;;;;4991502;28;47288;-50
2023/03/25 13:01:40;;;;;;;0.43;0.30;;;19.00;51.40;;;;;;4981810;28;45804;-52
2023/03/25 13:04:41;;;;;;;0.40;0.40;;;19.00;51.30;;;;;;4989121;28;44812;-51
2023/03/25 13:07:22;;;;;;;0.28;0.28;;;19.00;51.30;;;;;;4959923;28;44795;-54
2023/03/25 13:10:04;;;;;;;0.38;0.32;;;18.90;51.30;;;;;;4989512;28;46814;-50
2023/03/25 13:12:35;;;;;;;0.30;0.30;;;18.90;51.20;;;;;;4989739;28;45554;-53
2023/03/25 13:15:16;;;;;;;1.10;0.43;;;18.90;51.90;;;;;;4979142;28;46536;-53
2023/03/25 13:17:57;;;;;;;0.30;0.30;;;18.90;51.30;;;;;;4985537;28;45812;-51
2023/03/25 13:20:28;;;;;;;0.32;0.32;;;18.90;51.20;;;;;;4992423;28;47429;-55
2023/03/25 13:22:58;;;;;;;0.35;0.35;;;18.90;51.30;;;;;;4997577;28;45508;-52
2023/03/25 13:25:26;;;;;;;0.88;0.40;;;18.90;51.30;;;;;;4999232;28;45065;-51
2023/03/25 13:27:55;;;;;;;1.15;0.40;;;18.90;51.30;;;;;;5001700;28;45357;-50
2023/03/25 13:30:28;;;;;;;0.85;0.30;;;18.90;51.30;;;;;;4991959;28;45393;-50
2023/03/25 13:32:56;;;;;;;0.30;0.30;;;18.90;51.30;;;;;;4981811;28;46287;-53
2023/03/25 13:35:34;;;;;;;0.32;0.30;;;18.90;51.30;;;;;;4982002;28;45661;-53
2023/03/25 13:38:03;;;;;;;0.38;0.20;;;18.90;51.30;;;;;;5010513;28;45786;-51
2023/03/25 13:40:39;;;;;;;0.30;0.20;;;18.90;51.30;;;;;;4995526;28;46115;-51
2023/03/25 13:43:26;;;;;;;0.45;0.38;;;18.90;51.30;;;;;;5016485;28;45501;-50
2023/03/25 13:46:03;;;;;;;0.82;0.30;;;18.90;51.20;;;;;;4994923;28;45704;-52
2023/03/25 13:48:46;;;;;;;0.30;0.30;;;18.90;51.30;;;;;;5003584;28;45295;-51
2023/03/25 13:51:12;;;;;;;0.30;0.30;;;18.90;51.20;;;;;;4982788;28;47180;-50
2023/03/25 13:53:48;;;;;;;0.52;0.35;;;18.90;51.30;;;;;;5001558;28;45792;-52
2023/03/25 13:56:46;;;;;;;0.30;0.20;;;18.90;51.30;;;;;;5000118;28;46000;-51
2023/03/25 13:59:37;;;;;;;0.32;0.20;;;18.90;51.20;;;;;;5001992;28;44715;-50
2023/03/25 14:02:31;;;;;;;0.70;0.30;;;18.90;51.40;;;;;;4999287;28;45456;-53
2023/03/25 14:05:28;;;;;;;0.20;0.20;;;18.90;51.40;;;;;;4998753;28;46397;-53
2023/03/25 14:08:09;;;;;;;0.43;0.40;;;18.80;51.40;;;;;;5001827;28;45355;-50
2023/03/25 14:10:52;;;;;;;0.20;0.20;;;18.80;51.40;;;;;;4997356;28;45452;-51
2023/03/25 14:13:28;;;;;;;0.98;0.20;;;18.80;51.40;;;;;;5001333;28;46826;-52
2023/03/25 14:16:08;;;;;;;0.30;0.30;;;18.80;51.50;;;;;;4994375;28;46248;-51
2023/03/25 14:18:44;;;;;;;0.47;0.32;;;18.80;51.50;;;;;;4986097;28;45723;-52
2023/03/25 14:21:19;;;;;;;0.30;0.30;;;18.80;51.50;;;;;;5006985;28;45808;-52
2023/03/25 14:23:46;;;;;;;0.30;0.30;;;18.80;51.50;;;;;;5003195;28;45986;-53
2023/03/25 14:26:11;;;;;;;0.30;0.30;;;18.80;51.50;;;;;;5013514;28;46071;-51
2023/03/25 14:28:39;;;;;;;0.77;0.40;;;18.80;51.50;;;;;;5004728;28;44840;-51
2023/03/25 14:31:06;;;;;;;1.85;0.30;;;18.80;51.40;;;;;;4991890;28;46545;-50
2023/03/25 14:34:11;;;;;;;0.30;0.30;;;18.80;51.50;;;;;;4999116;28;46510;-52
2023/03/25 14:36:39;;;;;;;0.32;0.30;;;18.80;51.30;;;;;;4954275;28;45880;-54
2023/03/25 14:39:23;;;;;;;0.22;0.20;;;18.80;51.40;;;;;;4962383;28;45964;-52
2023/03/25 14:41:54;;;;;;;0.40;0.30;;;18.80;51.40;;;;;;4981878;28;45099;-52
2023/03/25 14:44:20;;;;;;;0.65;0.45;;;18.80;51.40;;;;;;5001465;28;46038;-53
2023/03/25 14:46:45;;;;;;;0.50;0.40;;;18.90;51.40;;;;;;4993276;28;44833;-49
2023/03/25 14:49:20;;;;;;;0.25;0.25;;;18.80;51.30;;;;;;5001933;28;44670;-52
2023/03/25 14:51:49;;;;;;;0.20;0.20;;;18.90;51.40;;;;;;4996100;28;45795;-52
2023/03/25 14:54:20;;;;;;;0.20;0.20;;;18.90;51.40;;;;;;5003512;28;45645;-52
2023/03/25 14:56:46;;;;;;;0.40;0.30;;;18.90;51.40;;;;;;4999120;28;45842;-52
2023/03/25 14:59:14;;;;;;;0.25;0.25;;;18.90;51.40;;;;;;5004787;28;45473;-52
2023/03/25 15:01:40;;;;;;;0.25;0.20;;;18.80;51.40;;;;;;5001415;28;45667;-50
2023/03/25 15:04:18;;;;;;;0.30;0.30;;;18.80;51.40;;;;;;4995074;28;45902;-50
2023/03/25 15:06:43;;;;;;;0.22;0.22;;;18.90;51.40;;;;;;4994158;28;45690;-54
2023/03/25 15:09:11;;;;;;;0.20;0.20;;;18.80;51.40;;;;;;5013280;28;45300;-51
2023/03/25 15:11:42;;;;;;;0.30;0.30;;;18.80;51.40;;;;;;4996216;28;45389;-50
2023/03/25 15:14:15;;;;;;;0.40;0.30;;;18.90;51.40;;;;;;5001015;28;45911;-50
2023/03/25 15:16:44;;;;;;;;;;;18.90;51.40;;;;;;5002164;28;45234;-50
2023/03/25 15:19:10;;;;;;;0.68;0.40;;;18.80;51.30;;;;;;5001031;28;45684;-51
2023/03/25 15:21:56;;;;;;;0.30;0.22;;;18.80;51.40;;;;;;4996122;28;44854;-50
2023/03/25 15:24:27;;;;;;;0.20;0.20;;;18.90;51.30;;;;;;5004411;28;46142;-51
2023/03/25 15:26:55;;;;;;;0.30;0.28;;;18.90;51.40;;;;;;4993494;28;45287;-50
2023/03/25 15:29:42;;;;;;;0.55;0.40;;;18.90;51.40;;;;;;5013088;28;45163;-50
2023/03/25 15:32:26;;;;;;;0.30;0.30;;;18.90;52.00;;;;;;4990994;28;46237;-54
2023/03/25 15:35:04;;;;;;;0.38;0.28;;;18.90;51.50;;;;;;5004235;28;45886;-50
2023/03/25 15:37:51;;;;;;;0.38;0.32;;;18.80;51.40;;;;;;5000253;28;45595;-50
2023/03/25 15:40:41;;;;;;;0.30;0.30;;;18.90;51.40;;;;;;4996873;28;45590;-51
2023/03/25 15:43:35;;;;;;;0.47;0.40;;;18.80;51.30;;;;;;4989050;28;45120;-54
2023/03/25 15:46:15;;;;;;;0.30;0.30;;;18.90;51.40;;;;;;4993267;28;45759;-52
2023/03/25 15:48:46;;;;;;;0.30;0.30;;;18.90;51.40;;;;;;4991684;28;45668;-51
2023/03/25 15:51:47;;;;;;;0.40;0.30;;;18.90;51.50;;;;;;4995295;28;45536;-50
2023/03/25 15:54:25;;;;;;;0.60;0.20;;;18.80;51.30;;;;;;5003200;28;46063;-52
2023/03/25 15:56:51;;;;;;;0.47;0.30;;;18.80;51.40;;;;;;4994288;28;46321;-51
2023/03/25 15:59:16;;;;;;;0.95;0.40;;;18.90;51.40;;;;;;4996100;28;45995;-51
2023/03/25 16:01:43;;;;;;;0.25;0.25;;;18.80;51.30;;;;;;4989319;28;45258;-49
2023/03/25 16:04:10;;;;;;;0.20;0.20;;;18.90;51.40;;;;;;5001081;28;45533;-50
2023/03/25 16:06:39;;;;;;;1.60;0.20;;;18.90;51.30;;;;;;4995499;28;46331;-51
2023/03/25 16:09:05;;;;;;;0.32;0.30;;;18.90;51.30;;;;;;4999348;28;47058;-50
2023/03/25 16:11:30;;;;;;;0.45;0.30;;;18.90;51.30;;;;;;5014133;28;45907;-52
2023/03/25 16:14:09;;;;;;;0.32;0.20;;;18.90;51.20;;;;;;5004527;28;45651;-50
2023/03/25 16:16:35;;;;;;;0.93;0.32;;;18.90;51.20;;;;;;5012292;28;46053;-49
2023/03/25 16:19:03;;;;;;;0.68;0.30;;;18.90;51.20;;;;;;4999764;28;46277;-49
2023/03/25 16:21:29;;;;;;;0.60;0.30;;;18.90;51.20;;;;;;5000285;28;46434;-51
2023/03/25 16:23:55;;;;;;;0.13;0.13;;;19.00;51.30;;;;;;4999344;28;45722;-51
2023/03/25 16:26:43;;;;;;;0.30;0.25;;;18.90;51.20;;;;;;4991077;28;45942;-52
2023/03/25 16:29:18;;;;;;;0.30;0.30;;;19.00;51.20;;;;;;4997054;28;45627;-52
2023/03/25 16:32:00;;;;;;;0.80;0.30;;;18.90;51.30;;;;;;5009099;28;45741;-53
2023/03/25 16:34:27;;;;;;;0.63;0.30;;;18.90;51.30;;;;;;5003307;28;45657;-53
2023/03/25 16:36:53;;;;;;;0.20;0.20;;;18.90;51.20;;;;;;4996709;28;45992;-51
2023/03/25 16:39:20;;;;;;;0.77;0.20;;;18.90;51.20;;;;;;4982796;28;45479;-53
2023/03/25 16:41:49;;;;;;;0.28;0.28;;;18.90;51.30;;;;;;4990850;28;45327;-53
2023/03/25 16:44:19;;;;;;;0.40;0.30;;;18.90;51.30;;;;;;5003096;28;45694;-54
2023/03/25 16:46:44;;;;;;;0.35;0.32;;;18.90;51.30;;;;;;4991827;28;46550;-55
2023/03/25 16:49:15;;;;;;;0.20;0.20;;;18.90;51.20;;;;;;4998461;28;45277;-51
2023/03/25 16:51:43;;;;;;;0.20;0.20;;;18.90;51.20;;;;;;5010429;28;45352;-51
2023/03/25 16:54:11;;;;;;;0.20;0.20;;;18.90;51.30;;;;;;5017967;28;45903;-50
2023/03/25 16:56:38;;;;;;;0.63;0.32;;;18.90;51.30;;;;;;4995272;28;45949;-54
2023/03/25 16:59:15;;;;;;;0.30;0.30;;;18.90;51.30;;;;;;5000386;28;45403;-53
2023/03/25 17:01:43;;;;;;;0.30;0.30;;;18.90;51.20;;;;;;4985819;28;46378;-54
2023/03/25 17:04:25;;;;;;;1.20;0.10;;;18.90;51.40;;;;;;4996787;28;45121;-52
2023/03/25 17:06:56;;;;;;;0.20;0.20;;;18.90;51.30;;;;;;4996701;28;46719;-53
2023/03/25 17:09:25;;;;;;;0.20;0.20;;;18.90;51.30;;;;;;5015089;28;45305;-52
2023/03/25 17:11:52;;;;;;;0.20;0.20;;;18.90;51.40;;;;;;4996047;28;44767;-53